sensor_id;sensor_type;location;lat;lon;timestamp;P1;durP1;ratioP1;P2;durP2;ratioP2
65535;SDS011;52145;49.342;9.116;2023-03-04T00:00:19;26.73;;;11.50;;
65535;SDS011;52145;49.342;9.116;2023-03-04T00:02:45;22.58;;;11.27;;
65535;SDS011;52145;49.342;9.116;2023-03-04T00:05:10;25.73;;;11.63;;
65535;SDS011;52145;49.342;9.116;2023-03-04T00:07:36;31.55;;;13.52;;
65535;SDS011;52145;49.342;9.116;2023-03-04T00:10:02;23.67;;;10.68;;
65535;SDS011;52145;49.342;9.116;2023-03-04T00:12:28;23.77;;;12.00;;
65535;SDS011;52145;49.342;9.116;2023-03-04T00:14:54;26.02;;;12.20;;
65535;SDS011;52145;49.342;9.116;2023-03-04T00:17:19;26.08;;;11.00;;
65535;SDS011;52145;49.342;9.116;2023-03-04T00:19:45;27.58;;;11.45;;
65535;SDS011;52145;49.342;9.116;2023-03-04T00:22:11;25.90;;;12.57;;
65535;SDS011;52145;49.342;9.116;2023-03-04T00:24:36;26.90;;;12.55;;
65535;SDS011;52145;49.342;9.116;2023-03-04T00:27:02;20.10;;;10.52;;
65535;SDS011;52145;49.342;9.116;2023-03-04T00:29:27;24.70;;;12.00;;
65535;SDS011;52145;49.342;9.116;2023-03-04T00:31:53;21.42;;;11.70;;
65535;SDS011;52145;49.342;9.116;2023-03-04T00:34:18;24.42;;;11.32;;
65535;SDS011;52145;49.342;9.116;2023-03-04T00:36:44;23.08;;;10.30;;
65535;SDS011;52145;49.342;9.116;2023-03-04T00:39:10;26.13;;;11.30;;
65535;SDS011;52145;49.342;9.116;2023-03-04T00:41:36;23.23;;;11.60;;
65535;SDS011;52145;49.342;9.116;2023-03-04T00:44:03;20.10;;;11.23;;
65535;SDS011;52145;49.342;9.116;2023-03-04T00:46:29;24.75;;;11.75;;
65535;SDS011;52145;49.342;9.116;2023-03-04T00:48:54;22.60;;;10.57;;
65535;SDS011;52145;49.342;9.116;2023-03-04T00:51:20;21.98;;;10.43;;
65535;SDS011;52145;49.342;9.116;2023-03-04T00:53:45;25.27;;;11.85;;
65535;SDS011;52145;49.342;9.116;2023-03-04T00:56:11;21.83;;;11.25;;
65535;SDS011;52145;49.342;9.116;2023-03-04T00:58:37;23.50;;;10.68;;
65535;SDS011;52145;49.342;9.116;2023-03-04T01:01:04;23.40;;;10.10;;
65535;SDS011;52145;49.342;9.116;2023-03-04T01:03:32;25.17;;;11.50;;
65535;SDS011;52145;49.342;9.116;2023-03-04T01:05:58;23.63;;;10.48;;
65535;SDS011;52145;49.342;9.116;2023-03-04T01:08:24;24.08;;;10.77;;
65535;SDS011;52145;49.342;9.116;2023-03-04T01:10:50;23.40;;;10.07;;
65535;SDS011;52145;49.342;9.116;2023-03-04T01:13:16;21.17;;;11.48;;
65535;SDS011;52145;49.342;9.116;2023-03-04T01:15:42;24.25;;;11.00;;
65535;SDS011;52145;49.342;9.116;2023-03-04T01:18:07;20.15;;;10.55;;
65535;SDS011;52145;49.342;9.116;2023-03-04T01:20:33;23.13;;;11.13;;
65535;SDS011;52145;49.342;9.116;2023-03-04T01:22:58;23.33;;;11.00;;
65535;SDS011;52145;49.342;9.116;2023-03-04T01:25:24;23.20;;;10.93;;
65535;SDS011;52145;49.342;9.116;2023-03-04T01:27:49;22.17;;;11.95;;
65535;SDS011;52145;49.342;9.116;2023-03-04T01:30:15;21.02;;;10.20;;
65535;SDS011;52145;49.342;9.116;2023-03-04T01:32:41;25.67;;;10.98;;
65535;SDS011;52145;49.342;9.116;2023-03-04T01:35:06;24.20;;;11.27;;
65535;SDS011;52145;49.342;9.116;2023-03-04T01:37:32;23.48;;;10.80;;
65535;SDS011;52145;49.342;9.116;2023-03-04T01:39:58;26.27;;;10.98;;
65535;SDS011;52145;49.342;9.116;2023-03-04T01:42:23;23.63;;;10.65;;
65535;SDS011;52145;49.342;9.116;2023-03-04T01:44:52;25.60;;;12.00;;
65535;SDS011;52145;49.342;9.116;2023-03-04T01:47:17;23.27;;;11.10;;
65535;SDS011;52145;49.342;9.116;2023-03-04T01:49:44;23.75;;;10.80;;
65535;SDS011;52145;49.342;9.116;2023-03-04T01:52:17;23.25;;;10.60;;
65535;SDS011;52145;49.342;9.116;2023-03-04T01:54:42;21.98;;;9.95;;
65535;SDS011;52145;49.342;9.116;2023-03-04T01:57:15;26.58;;;11.85;;
65535;SDS011;52145;49.342;9.116;2023-03-04T02:02:39;21.35;;;10.25;;
65535;SDS011;52145;49.342;9.116;2023-03-04T02:05:05;24.13;;;10.50;;
65535;SDS011;52145;49.342;9.116;2023-03-04T02:07:30;26.70;;;11.70;;
65535;SDS011;52145;49.342;9.116;2023-03-04T02:09:56;24.20;;;10.93;;
65535;SDS011;52145;49.342;9.116;2023-03-04T02:12:21;24.05;;;11.10;;
65535;SDS011;52145;49.342;9.116;2023-03-04T02:14:47;23.30;;;9.88;;
65535;SDS011;52145;49.342;9.116;2023-03-04T02:17:13;27.33;;;11.13;;
65535;SDS011;52145;49.342;9.116;2023-03-04T02:22:34;21.17;;;9.77;;
65535;SDS011;52145;49.342;9.116;2023-03-04T02:25:06;22.88;;;11.52;;
65535;SDS011;52145;49.342;9.116;2023-03-04T02:27:38;25.73;;;10.88;;
65535;SDS011;52145;49.342;9.116;2023-03-04T02:30:03;21.48;;;10.45;;
65535;SDS011;52145;49.342;9.116;2023-03-04T02:32:30;26.77;;;12.38;;
65535;SDS011;52145;49.342;9.116;2023-03-04T02:34:55;24.52;;;11.15;;
65535;SDS011;52145;49.342;9.116;2023-03-04T02:37:21;23.80;;;10.63;;
65535;SDS011;52145;49.342;9.116;2023-03-04T02:39:47;25.05;;;11.85;;
65535;SDS011;52145;49.342;9.116;2023-03-04T02:42:13;22.80;;;10.18;;
65535;SDS011;52145;49.342;9.116;2023-03-04T02:44:40;28.08;;;11.52;;
65535;SDS011;52145;49.342;9.116;2023-03-04T02:47:11;21.63;;;11.20;;
65535;SDS011;52145;49.342;9.116;2023-03-04T02:49:38;25.40;;;11.98;;
65535;SDS011;52145;49.342;9.116;2023-03-04T02:54:37;23.27;;;11.27;;
65535;SDS011;52145;49.342;9.116;2023-03-04T02:57:04;25.95;;;11.88;;
65535;SDS011;52145;49.342;9.116;2023-03-04T02:59:31;26.30;;;11.55;;
65535;SDS011;52145;49.342;9.116;2023-03-04T03:01:56;23.00;;;11.77;;
65535;SDS011;52145;49.342;9.116;2023-03-04T03:04:22;24.05;;;11.70;;
65535;SDS011;52145;49.342;9.116;2023-03-04T03:06:49;24.20;;;11.30;;
65535;SDS011;52145;49.342;9.116;2023-03-04T03:09:15;24.35;;;10.63;;
65535;SDS011;52145;49.342;9.116;2023-03-04T03:11:40;23.00;;;10.40;;
65535;SDS011;52145;49.342;9.116;2023-03-04T03:14:06;21.40;;;10.80;;
65535;SDS011;52145;49.342;9.116;2023-03-04T03:16:32;24.50;;;9.70;;
65535;SDS011;52145;49.342;9.116;2023-03-04T03:18:57;23.40;;;10.98;;
65535;SDS011;52145;49.342;9.116;2023-03-04T03:21:23;21.58;;;11.07;;
65535;SDS011;52145;49.342;9.116;2023-03-04T03:23:48;23.38;;;10.75;;
65535;SDS011;52145;49.342;9.116;2023-03-04T03:26:14;25.52;;;11.35;;
65535;SDS011;52145;49.342;9.116;2023-03-04T03:28:40;20.90;;;9.77;;
65535;SDS011;52145;49.342;9.116;2023-03-04T03:31:06;24.75;;;10.52;;
65535;SDS011;52145;49.342;9.116;2023-03-04T03:33:32;26.90;;;10.80;;
65535;SDS011;52145;49.342;9.116;2023-03-04T03:35:57;24.60;;;10.73;;
65535;SDS011;52145;49.342;9.116;2023-03-04T03:38:24;25.38;;;11.65;;
65535;SDS011;52145;49.342;9.116;2023-03-04T03:40:49;26.13;;;12.05;;
65535;SDS011;52145;49.342;9.116;2023-03-04T03:43:15;23.00;;;10.25;;
65535;SDS011;52145;49.342;9.116;2023-03-04T03:45:40;21.67;;;9.43;;
65535;SDS011;52145;49.342;9.116;2023-03-04T03:48:06;26.48;;;10.95;;
65535;SDS011;52145;49.342;9.116;2023-03-04T03:50:31;35.63;;;12.55;;
65535;SDS011;52145;49.342;9.116;2023-03-04T03:52:57;20.48;;;9.02;;
65535;SDS011;52145;49.342;9.116;2023-03-04T03:55:23;24.20;;;11.05;;
65535;SDS011;52145;49.342;9.116;2023-03-04T03:57:48;24.70;;;10.45;;
65535;SDS011;52145;49.342;9.116;2023-03-04T04:00:14;23.25;;;10.02;;
65535;SDS011;52145;49.342;9.116;2023-03-04T04:02:40;21.42;;;10.35;;
65535;SDS011;52145;49.342;9.116;2023-03-04T04:05:06;22.80;;;10.80;;
65535;SDS011;52145;49.342;9.116;2023-03-04T04:07:33;23.08;;;10.40;;
65535;SDS011;52145;49.342;9.116;2023-03-04T04:09:59;25.13;;;11.55;;
65535;SDS011;52145;49.342;9.116;2023-03-04T04:12:24;24.83;;;10.23;;
65535;SDS011;52145;49.342;9.116;2023-03-04T04:14:50;21.67;;;9.45;;
65535;SDS011;52145;49.342;9.116;2023-03-04T04:17:15;21.27;;;9.77;;
65535;SDS011;52145;49.342;9.116;2023-03-04T04:19:41;21.00;;;10.15;;
65535;SDS011;52145;49.342;9.116;2023-03-04T04:22:07;24.15;;;10.50;;
65535;SDS011;52145;49.342;9.116;2023-03-04T04:24:41;21.70;;;9.88;;
65535;SDS011;52145;49.342;9.116;2023-03-04T04:27:07;24.30;;;10.98;;
65535;SDS011;52145;49.342;9.116;2023-03-04T04:29:32;22.95;;;11.10;;
65535;SDS011;52145;49.342;9.116;2023-03-04T04:31:58;24.38;;;11.07;;
65535;SDS011;52145;49.342;9.116;2023-03-04T04:34:23;24.27;;;10.07;;
65535;SDS011;52145;49.342;9.116;2023-03-04T04:36:49;22.20;;;10.93;;
65535;SDS011;52145;49.342;9.116;2023-03-04T04:39:15;25.13;;;11.50;;
65535;SDS011;52145;49.342;9.116;2023-03-04T04:41:41;24.30;;;10.20;;
65535;SDS011;52145;49.342;9.116;2023-03-04T04:44:08;21.58;;;10.40;;
65535;SDS011;52145;49.342;9.116;2023-03-04T04:46:35;22.60;;;9.98;;
65535;SDS011;52145;49.342;9.116;2023-03-04T04:49:01;27.42;;;10.88;;
65535;SDS011;52145;49.342;9.116;2023-03-04T04:51:27;19.65;;;9.05;;
65535;SDS011;52145;49.342;9.116;2023-03-04T04:53:53;21.02;;;9.35;;
65535;SDS011;52145;49.342;9.116;2023-03-04T04:56:20;19.55;;;9.50;;
65535;SDS011;52145;49.342;9.116;2023-03-04T04:58:49;22.38;;;10.10;;
65535;SDS011;52145;49.342;9.116;2023-03-04T05:01:14;23.10;;;9.18;;
65535;SDS011;52145;49.342;9.116;2023-03-04T05:03:40;22.25;;;10.68;;
65535;SDS011;52145;49.342;9.116;2023-03-04T05:06:07;24.05;;;10.30;;
65535;SDS011;52145;49.342;9.116;2023-03-04T05:08:34;24.83;;;11.65;;
65535;SDS011;52145;49.342;9.116;2023-03-04T05:10:59;24.70;;;10.43;;
65535;SDS011;52145;49.342;9.116;2023-03-04T05:13:26;27.15;;;10.73;;
65535;SDS011;52145;49.342;9.116;2023-03-04T05:15:52;20.55;;;11.38;;
65535;SDS011;52145;49.342;9.116;2023-03-04T05:18:19;27.13;;;13.73;;
65535;SDS011;52145;49.342;9.116;2023-03-04T05:20:53;24.25;;;10.32;;
65535;SDS011;52145;49.342;9.116;2023-03-04T05:23:23;24.38;;;11.27;;
65535;SDS011;52145;49.342;9.116;2023-03-04T05:25:50;31.67;;;11.63;;
65535;SDS011;52145;49.342;9.116;2023-03-04T05:28:16;22.67;;;9.93;;
65535;SDS011;52145;49.342;9.116;2023-03-04T05:30:42;23.98;;;9.93;;
65535;SDS011;52145;49.342;9.116;2023-03-04T05:33:09;21.35;;;9.55;;
65535;SDS011;52145;49.342;9.116;2023-03-04T05:35:36;19.48;;;9.30;;
65535;SDS011;52145;49.342;9.116;2023-03-04T05:38:03;21.90;;;10.02;;
65535;SDS011;52145;49.342;9.116;2023-03-04T05:40:31;20.90;;;9.93;;
65535;SDS011;52145;49.342;9.116;2023-03-04T05:42:57;25.60;;;11.05;;
65535;SDS011;52145;49.342;9.116;2023-03-04T05:45:23;23.30;;;10.98;;
65535;SDS011;52145;49.342;9.116;2023-03-04T05:47:50;22.15;;;10.38;;
65535;SDS011;52145;49.342;9.116;2023-03-04T05:50:16;22.40;;;10.27;;
65535;SDS011;52145;49.342;9.116;2023-03-04T05:52:41;23.23;;;10.18;;
65535;SDS011;52145;49.342;9.116;2023-03-04T05:55:07;21.52;;;9.35;;
65535;SDS011;52145;49.342;9.116;2023-03-04T05:57:33;19.95;;;9.65;;
65535;SDS011;52145;49.342;9.116;2023-03-04T05:59:59;31.38;;;12.70;;
65535;SDS011;52145;49.342;9.116;2023-03-04T06:02:24;24.88;;;10.98;;
65535;SDS011;52145;49.342;9.116;2023-03-04T06:04:50;24.40;;;12.07;;
65535;SDS011;52145;49.342;9.116;2023-03-04T06:07:15;25.27;;;12.88;;
65535;SDS011;52145;49.342;9.116;2023-03-04T06:09:41;26.10;;;13.82;;
65535;SDS011;52145;49.342;9.116;2023-03-04T06:12:09;22.98;;;10.10;;
65535;SDS011;52145;49.342;9.116;2023-03-04T06:14:35;26.90;;;10.88;;
65535;SDS011;52145;49.342;9.116;2023-03-04T06:17:00;26.30;;;11.13;;
65535;SDS011;52145;49.342;9.116;2023-03-04T06:19:26;21.73;;;9.85;;
65535;SDS011;52145;49.342;9.116;2023-03-04T06:21:51;18.15;;;9.30;;
65535;SDS011;52145;49.342;9.116;2023-03-04T06:24:17;23.90;;;10.30;;
65535;SDS011;52145;49.342;9.116;2023-03-04T06:26:43;33.03;;;18.42;;
65535;SDS011;52145;49.342;9.116;2023-03-04T06:29:08;31.08;;;14.82;;
65535;SDS011;52145;49.342;9.116;2023-03-04T06:31:34;26.90;;;13.98;;
65535;SDS011;52145;49.342;9.116;2023-03-04T06:33:59;22.23;;;10.93;;
65535;SDS011;52145;49.342;9.116;2023-03-04T06:36:25;20.83;;;11.32;;
65535;SDS011;52145;49.342;9.116;2023-03-04T06:38:50;23.35;;;12.75;;
65535;SDS011;52145;49.342;9.116;2023-03-04T06:41:16;25.85;;;11.80;;
65535;SDS011;52145;49.342;9.116;2023-03-04T06:43:41;23.65;;;11.65;;
65535;SDS011;52145;49.342;9.116;2023-03-04T06:46:07;24.40;;;12.35;;
65535;SDS011;52145;49.342;9.116;2023-03-04T06:48:33;28.25;;;12.52;;
65535;SDS011;52145;49.342;9.116;2023-03-04T06:51:06;24.95;;;12.60;;
65535;SDS011;52145;49.342;9.116;2023-03-04T06:53:33;21.95;;;11.88;;
65535;SDS011;52145;49.342;9.116;2023-03-04T06:55:59;25.60;;;13.07;;
65535;SDS011;52145;49.342;9.116;2023-03-04T06:58:24;28.42;;;14.45;;
65535;SDS011;52145;49.342;9.116;2023-03-04T07:00:50;34.25;;;14.52;;
65535;SDS011;52145;49.342;9.116;2023-03-04T07:03:16;28.73;;;12.13;;
65535;SDS011;52145;49.342;9.116;2023-03-04T07:05:42;22.75;;;11.73;;
65535;SDS011;52145;49.342;9.116;2023-03-04T07:08:07;31.75;;;13.60;;
65535;SDS011;52145;49.342;9.116;2023-03-04T07:10:33;24.67;;;11.65;;
65535;SDS011;52145;49.342;9.116;2023-03-04T07:12:59;25.25;;;12.15;;
65535;SDS011;52145;49.342;9.116;2023-03-04T07:15:25;23.23;;;11.55;;
65535;SDS011;52145;49.342;9.116;2023-03-04T07:17:51;20.98;;;10.70;;
65535;SDS011;52145;49.342;9.116;2023-03-04T07:20:16;23.33;;;11.50;;
65535;SDS011;52145;49.342;9.116;2023-03-04T07:22:42;24.38;;;12.43;;
65535;SDS011;52145;49.342;9.116;2023-03-04T07:25:08;26.08;;;11.80;;
65535;SDS011;52145;49.342;9.116;2023-03-04T07:27:33;23.42;;;12.63;;
65535;SDS011;52145;49.342;9.116;2023-03-04T07:29:59;27.55;;;13.18;;
65535;SDS011;52145;49.342;9.116;2023-03-04T07:32:25;26.88;;;15.10;;
65535;SDS011;52145;49.342;9.116;2023-03-04T07:34:50;27.83;;;16.10;;
65535;SDS011;52145;49.342;9.116;2023-03-04T07:37:16;29.35;;;15.35;;
65535;SDS011;52145;49.342;9.116;2023-03-04T07:39:42;26.42;;;13.30;;
65535;SDS011;52145;49.342;9.116;2023-03-04T07:42:07;24.67;;;12.13;;
65535;SDS011;52145;49.342;9.116;2023-03-04T07:44:33;26.67;;;11.98;;
65535;SDS011;52145;49.342;9.116;2023-03-04T07:46:58;24.33;;;12.32;;
65535;SDS011;52145;49.342;9.116;2023-03-04T07:49:24;27.17;;;14.68;;
65535;SDS011;52145;49.342;9.116;2023-03-04T07:51:49;31.48;;;14.00;;
65535;SDS011;52145;49.342;9.116;2023-03-04T07:54:15;25.27;;;13.45;;
65535;SDS011;52145;49.342;9.116;2023-03-04T07:56:40;23.90;;;12.30;;
65535;SDS011;52145;49.342;9.116;2023-03-04T07:59:06;45.42;;;23.33;;
65535;SDS011;52145;49.342;9.116;2023-03-04T08:01:34;24.98;;;13.30;;
65535;SDS011;52145;49.342;9.116;2023-03-04T08:04:01;20.52;;;11.18;;
65535;SDS011;52145;49.342;9.116;2023-03-04T08:06:28;21.38;;;10.95;;
65535;SDS011;52145;49.342;9.116;2023-03-04T08:08:55;25.77;;;12.65;;
65535;SDS011;52145;49.342;9.116;2023-03-04T08:11:22;23.25;;;12.55;;
65535;SDS011;52145;49.342;9.116;2023-03-04T08:13:48;21.95;;;11.27;;
65535;SDS011;52145;49.342;9.116;2023-03-04T08:16:15;23.88;;;11.98;;
65535;SDS011;52145;49.342;9.116;2023-03-04T08:18:42;23.60;;;11.90;;
65535;SDS011;52145;49.342;9.116;2023-03-04T08:21:09;23.63;;;12.10;;
65535;SDS011;52145;49.342;9.116;2023-03-04T08:23:35;24.48;;;11.93;;
65535;SDS011;52145;49.342;9.116;2023-03-04T08:26:05;24.30;;;12.77;;
65535;SDS011;52145;49.342;9.116;2023-03-04T08:28:32;22.58;;;12.63;;
65535;SDS011;52145;49.342;9.116;2023-03-04T08:30:58;20.35;;;11.48;;
65535;SDS011;52145;49.342;9.116;2023-03-04T08:33:23;24.38;;;11.40;;
65535;SDS011;52145;49.342;9.116;2023-03-04T08:35:49;27.80;;;13.63;;
65535;SDS011;52145;49.342;9.116;2023-03-04T08:38:14;21.58;;;11.68;;
65535;SDS011;52145;49.342;9.116;2023-03-04T08:40:40;26.02;;;12.93;;
65535;SDS011;52145;49.342;9.116;2023-03-04T08:43:05;26.40;;;13.48;;
65535;SDS011;52145;49.342;9.116;2023-03-04T08:45:31;27.02;;;13.55;;
65535;SDS011;52145;49.342;9.116;2023-03-04T08:47:56;26.55;;;13.98;;
65535;SDS011;52145;49.342;9.116;2023-03-04T08:50:22;31.23;;;14.68;;
65535;SDS011;52145;49.342;9.116;2023-03-04T08:52:47;28.65;;;14.77;;
65535;SDS011;52145;49.342;9.116;2023-03-04T08:55:13;29.50;;;15.52;;
65535;SDS011;52145;49.342;9.116;2023-03-04T08:57:39;30.50;;;15.65;;
65535;SDS011;52145;49.342;9.116;2023-03-04T09:00:04;29.27;;;14.73;;
65535;SDS011;52145;49.342;9.116;2023-03-04T09:02:30;25.70;;;12.90;;
65535;SDS011;52145;49.342;9.116;2023-03-04T09:04:56;27.42;;;14.15;;
65535;SDS011;52145;49.342;9.116;2023-03-04T09:07:21;24.58;;;14.27;;
65535;SDS011;52145;49.342;9.116;2023-03-04T09:09:48;25.63;;;13.73;;
65535;SDS011;52145;49.342;9.116;2023-03-04T09:12:13;25.52;;;14.07;;
65535;SDS011;52145;49.342;9.116;2023-03-04T09:14:39;26.55;;;14.02;;
65535;SDS011;52145;49.342;9.116;2023-03-04T09:17:04;26.92;;;14.82;;
65535;SDS011;52145;49.342;9.116;2023-03-04T09:19:30;24.98;;;14.57;;
65535;SDS011;52145;49.342;9.116;2023-03-04T09:21:56;29.42;;;14.15;;
65535;SDS011;52145;49.342;9.116;2023-03-04T09:24:23;27.30;;;14.52;;
65535;SDS011;52145;49.342;9.116;2023-03-04T09:26:50;24.77;;;13.75;;
65535;SDS011;52145;49.342;9.116;2023-03-04T09:29:17;28.23;;;14.80;;
65535;SDS011;52145;49.342;9.116;2023-03-04T09:31:43;24.02;;;13.60;;
65535;SDS011;52145;49.342;9.116;2023-03-04T09:34:08;26.65;;;14.13;;
65535;SDS011;52145;49.342;9.116;2023-03-04T09:36:33;25.85;;;14.70;;
65535;SDS011;52145;49.342;9.116;2023-03-04T09:38:59;26.70;;;15.25;;
65535;SDS011;52145;49.342;9.116;2023-03-04T09:41:33;25.92;;;14.05;;
65535;SDS011;52145;49.342;9.116;2023-03-04T09:46:46;28.25;;;14.57;;
65535;SDS011;52145;49.342;9.116;2023-03-04T09:49:13;25.15;;;13.93;;
65535;SDS011;52145;49.342;9.116;2023-03-04T09:51:44;24.02;;;13.88;;
65535;SDS011;52145;49.342;9.116;2023-03-04T09:56:58;25.67;;;15.13;;
65535;SDS011;52145;49.342;9.116;2023-03-04T09:59:38;25.55;;;14.63;;
65535;SDS011;52145;49.342;9.116;2023-03-04T10:05:17;32.10;;;18.58;;
65535;SDS011;52145;49.342;9.116;2023-03-04T10:07:46;35.55;;;18.55;;
65535;SDS011;52145;49.342;9.116;2023-03-04T10:10:18;34.13;;;18.45;;
65535;SDS011;52145;49.342;9.116;2023-03-04T10:12:50;31.85;;;16.92;;
65535;SDS011;52145;49.342;9.116;2023-03-04T10:15:26;29.88;;;17.42;;
65535;SDS011;52145;49.342;9.116;2023-03-04T10:18:02;31.00;;;17.33;;
65535;SDS011;52145;49.342;9.116;2023-03-04T10:20:55;28.40;;;16.10;;
65535;SDS011;52145;49.342;9.116;2023-03-04T10:23:27;26.88;;;15.73;;
65535;SDS011;52145;49.342;9.116;2023-03-04T10:25:54;24.88;;;15.75;;
65535;SDS011;52145;49.342;9.116;2023-03-04T10:30:50;23.83;;;14.75;;
65535;SDS011;52145;49.342;9.116;2023-03-04T10:33:29;28.60;;;17.27;;
65535;SDS011;52145;49.342;9.116;2023-03-04T10:36:00;33.65;;;18.02;;
65535;SDS011;52145;49.342;9.116;2023-03-04T10:38:28;26.50;;;15.68;;
65535;SDS011;52145;49.342;9.116;2023-03-04T10:40:57;26.70;;;15.82;;
65535;SDS011;52145;49.342;9.116;2023-03-04T10:43:22;26.20;;;15.32;;
65535;SDS011;52145;49.342;9.116;2023-03-04T10:45:48;27.05;;;16.38;;
65535;SDS011;52145;49.342;9.116;2023-03-04T10:48:22;25.23;;;15.73;;
65535;SDS011;52145;49.342;9.116;2023-03-04T10:50:49;30.02;;;16.08;;
65535;SDS011;52145;49.342;9.116;2023-03-04T10:53:23;28.05;;;15.48;;
65535;SDS011;52145;49.342;9.116;2023-03-04T10:55:53;27.52;;;16.27;;
65535;SDS011;52145;49.342;9.116;2023-03-04T10:58:19;26.08;;;16.73;;
65535;SDS011;52145;49.342;9.116;2023-03-04T11:00:49;33.03;;;16.60;;
65535;SDS011;52145;49.342;9.116;2023-03-04T11:03:34;28.80;;;16.80;;
65535;SDS011;52145;49.342;9.116;2023-03-04T11:06:10;27.23;;;16.35;;
65535;SDS011;52145;49.342;9.116;2023-03-04T11:08:53;26.15;;;14.93;;
65535;SDS011;52145;49.342;9.116;2023-03-04T11:11:22;24.98;;;15.35;;
65535;SDS011;52145;49.342;9.116;2023-03-04T11:13:51;26.08;;;15.88;;
65535;SDS011;52145;49.342;9.116;2023-03-04T11:16:23;28.52;;;16.30;;
65535;SDS011;52145;49.342;9.116;2023-03-04T11:18:54;25.20;;;15.40;;
65535;SDS011;52145;49.342;9.116;2023-03-04T11:21:27;27.70;;;15.70;;
65535;SDS011;52145;49.342;9.116;2023-03-04T11:26:28;26.83;;;15.18;;
65535;SDS011;52145;49.342;9.116;2023-03-04T11:29:15;27.80;;;15.35;;
65535;SDS011;52145;49.342;9.116;2023-03-04T11:34:55;26.88;;;14.68;;
65535;SDS011;52145;49.342;9.116;2023-03-04T11:40:02;23.55;;;14.38;;
65535;SDS011;52145;49.342;9.116;2023-03-04T11:45:24;29.95;;;15.38;;
65535;SDS011;52145;49.342;9.116;2023-03-04T11:53:52;23.33;;;13.70;;
65535;SDS011;52145;49.342;9.116;2023-03-04T12:18:42;19.70;;;12.52;;
65535;SDS011;52145;49.342;9.116;2023-03-04T12:26:50;19.92;;;11.85;;
65535;SDS011;52145;49.342;9.116;2023-03-04T12:31:49;24.55;;;12.05;;
65535;SDS011;52145;49.342;9.116;2023-03-04T12:34:37;22.30;;;12.55;;
65535;SDS011;52145;49.342;9.116;2023-03-04T12:37:20;23.73;;;13.38;;
65535;SDS011;52145;49.342;9.116;2023-03-04T12:40:02;18.98;;;11.75;;
65535;SDS011;52145;49.342;9.116;2023-03-04T12:51:00;23.08;;;11.93;;
65535;SDS011;52145;49.342;9.116;2023-03-04T12:56:42;20.63;;;12.18;;
65535;SDS011;52145;49.342;9.116;2023-03-04T13:01:41;27.48;;;14.27;;
65535;SDS011;52145;49.342;9.116;2023-03-04T13:07:07;23.70;;;13.68;;
65535;SDS011;52145;49.342;9.116;2023-03-04T13:09:44;23.75;;;13.18;;
65535;SDS011;52145;49.342;9.116;2023-03-04T13:12:19;23.20;;;12.98;;
65535;SDS011;52145;49.342;9.116;2023-03-04T13:23:00;25.38;;;14.02;;
65535;SDS011;52145;49.342;9.116;2023-03-04T13:25:42;26.90;;;12.68;;
65535;SDS011;52145;49.342;9.116;2023-03-04T13:43:52;23.42;;;12.48;;
65535;SDS011;52145;49.342;9.116;2023-03-04T13:46:47;27.63;;;11.95;;
65535;SDS011;52145;49.342;9.116;2023-03-04T13:49:20;26.70;;;12.63;;
65535;SDS011;52145;49.342;9.116;2023-03-04T13:51:48;22.63;;;11.43;;
65535;SDS011;52145;49.342;9.116;2023-03-04T13:54:26;26.35;;;12.57;;
65535;SDS011;52145;49.342;9.116;2023-03-04T13:57:15;26.77;;;12.65;;
65535;SDS011;52145;49.342;9.116;2023-03-04T13:59:54;24.60;;;11.88;;
65535;SDS011;52145;49.342;9.116;2023-03-04T14:02:22;23.30;;;12.48;;
65535;SDS011;52145;49.342;9.116;2023-03-04T14:07:28;23.85;;;11.35;;
65535;SDS011;52145;49.342;9.116;2023-03-04T14:12:36;21.75;;;10.90;;
65535;SDS011;52145;49.342;9.116;2023-03-04T14:17:48;20.92;;;11.38;;
65535;SDS011;52145;49.342;9.116;2023-03-04T14:20:35;20.40;;;11.45;;
65535;SDS011;52145;49.342;9.116;2023-03-04T14:23:22;24.45;;;13.10;;
65535;SDS011;52145;49.342;9.116;2023-03-04T14:26:07;22.13;;;12.27;;
65535;SDS011;52145;49.342;9.116;2023-03-04T14:29:17;23.80;;;10.82;;
65535;SDS011;52145;49.342;9.116;2023-03-04T14:31:28;26.08;;;12.93;;
65535;SDS011;52145;49.342;9.116;2023-03-04T14:33:56;22.75;;;11.27;;
65535;SDS011;52145;49.342;9.116;2023-03-04T14:36:26;22.45;;;10.68;;
65535;SDS011;52145;49.342;9.116;2023-03-04T14:38:58;30.42;;;12.02;;
65535;SDS011;52145;49.342;9.116;2023-03-04T14:44:06;20.65;;;10.15;;
65535;SDS011;52145;49.342;9.116;2023-03-04T14:46:39;19.88;;;10.45;;
65535;SDS011;52145;49.342;9.116;2023-03-04T14:49:12;22.35;;;10.55;;
65535;SDS011;52145;49.342;9.116;2023-03-04T14:51:41;19.67;;;10.20;;
65535;SDS011;52145;49.342;9.116;2023-03-04T14:54:35;18.30;;;10.02;;
65535;SDS011;52145;49.342;9.116;2023-03-04T14:59:43;21.02;;;10.50;;
65535;SDS011;52145;49.342;9.116;2023-03-04T15:04:56;20.95;;;10.43;;
65535;SDS011;52145;49.342;9.116;2023-03-04T15:07:33;17.25;;;9.82;;
65535;SDS011;52145;49.342;9.116;2023-03-04T15:10:01;23.55;;;11.10;;
65535;SDS011;52145;49.342;9.116;2023-03-04T15:12:30;15.25;;;9.05;;
65535;SDS011;52145;49.342;9.116;2023-03-04T15:15:00;18.17;;;9.52;;
65535;SDS011;52145;49.342;9.116;2023-03-04T15:17:29;25.17;;;9.82;;
65535;SDS011;52145;49.342;9.116;2023-03-04T15:22:34;25.73;;;10.35;;
65535;SDS011;52145;49.342;9.116;2023-03-04T15:25:21;21.10;;;9.23;;
65535;SDS011;52145;49.342;9.116;2023-03-04T15:27:48;18.45;;;9.27;;
65535;SDS011;52145;49.342;9.116;2023-03-04T15:32:41;21.30;;;9.73;;
65535;SDS011;52145;49.342;9.116;2023-03-04T15:35:13;17.77;;;8.73;;
65535;SDS011;52145;49.342;9.116;2023-03-04T15:37:40;21.20;;;9.30;;
65535;SDS011;52145;49.342;9.116;2023-03-04T15:40:12;19.17;;;8.57;;
65535;SDS011;52145;49.342;9.116;2023-03-04T15:42:40;16.02;;;8.02;;
65535;SDS011;52145;49.342;9.116;2023-03-04T15:45:39;20.88;;;9.40;;
65535;SDS011;52145;49.342;9.116;2023-03-04T15:48:00;22.35;;;8.60;;
65535;SDS011;52145;49.342;9.116;2023-03-04T15:50:31;18.02;;;9.00;;
65535;SDS011;52145;49.342;9.116;2023-03-04T15:52:59;25.33;;;9.18;;
65535;SDS011;52145;49.342;9.116;2023-03-04T15:55:27;22.63;;;8.70;;
65535;SDS011;52145;49.342;9.116;2023-03-04T15:57:55;23.95;;;9.50;;
65535;SDS011;52145;49.342;9.116;2023-03-04T16:00:22;18.05;;;9.23;;
65535;SDS011;52145;49.342;9.116;2023-03-04T16:02:48;21.25;;;8.77;;
65535;SDS011;52145;49.342;9.116;2023-03-04T16:05:13;17.85;;;7.80;;
65535;SDS011;52145;49.342;9.116;2023-03-04T16:07:40;19.05;;;8.82;;
65535;SDS011;52145;49.342;9.116;2023-03-04T16:10:23;18.05;;;8.88;;
65535;SDS011;52145;49.342;9.116;2023-03-04T16:12:51;20.85;;;8.90;;
65535;SDS011;52145;49.342;9.116;2023-03-04T16:15:18;21.45;;;8.30;;
65535;SDS011;52145;49.342;9.116;2023-03-04T16:17:45;16.42;;;8.05;;
65535;SDS011;52145;49.342;9.116;2023-03-04T16:20:12;21.95;;;9.73;;
65535;SDS011;52145;49.342;9.116;2023-03-04T16:22:40;19.80;;;8.57;;
65535;SDS011;52145;49.342;9.116;2023-03-04T16:25:10;20.25;;;8.65;;
65535;SDS011;52145;49.342;9.116;2023-03-04T16:27:38;22.50;;;10.10;;
65535;SDS011;52145;49.342;9.116;2023-03-04T16:30:05;21.15;;;8.57;;
65535;SDS011;52145;49.342;9.116;2023-03-04T16:32:52;21.52;;;10.63;;
65535;SDS011;52145;49.342;9.116;2023-03-04T16:35:18;20.88;;;11.38;;
65535;SDS011;52145;49.342;9.116;2023-03-04T16:37:45;23.08;;;10.70;;